createdAt,value
2022-09-28T00:02:03.980Z,53.39
2022-09-28T00:04:30.576Z,53.41
2022-09-28T00:06:56.907Z,53.52
2022-09-28T00:09:23.251Z,53.53
2022-09-28T00:11:50.861Z,53.84
2022-09-28T00:14:17.205Z,54.16
2022-09-28T00:16:44.165Z,53.66
2022-09-28T00:19:11.305Z,53.30
2022-09-28T00:21:38.752Z,53.27
2022-09-28T00:24:06.326Z,53.25
2022-09-28T00:26:33.500Z,53.47
2022-09-28T00:29:02.022Z,53.23
2022-09-28T00:31:29.524Z,53.23
2022-09-28T00:33:56.302Z,53.07
2022-09-28T00:36:23.113Z,53.15
2022-09-28T00:38:49.795Z,53.60
2022-09-28T00:41:17.376Z,53.90
2022-09-28T00:43:43.729Z,53.47
2022-09-28T00:46:14.547Z,53.14
2022-09-28T00:48:44.233Z,53.02
2022-09-28T00:51:11.892Z,52.98
2022-09-28T00:53:40.112Z,52.97
2022-09-28T00:56:08.446Z,53.10
2022-09-28T00:58:36.248Z,53.03
2022-09-28T01:01:03.531Z,52.92
2022-09-28T01:03:32.499Z,53.52
2022-09-28T01:05:59.910Z,53.54
2022-09-28T01:08:27.121Z,53.16
2022-09-28T01:10:53.545Z,53.05
2022-09-28T01:13:20.665Z,52.90
2022-09-28T01:15:52.955Z,52.80
2022-09-28T01:18:22.712Z,52.83
2022-09-28T01:20:54.384Z,52.83
2022-09-28T01:23:31.910Z,52.89
2022-09-28T01:26:03.383Z,52.87
2022-09-28T01:28:31.455Z,53.28
2022-09-28T01:31:01.615Z,53.39
2022-09-28T01:33:31.265Z,53.04
2022-09-28T01:35:59.989Z,52.97
2022-09-28T01:38:28.441Z,52.93
2022-09-28T01:40:55.962Z,52.62
2022-09-28T01:43:24.293Z,52.74
2022-09-28T01:45:54.230Z,52.66
2022-09-28T01:48:24.480Z,52.69
2022-09-28T01:50:53.466Z,52.82
2022-09-28T01:53:22.088Z,52.80
2022-09-28T01:55:50.670Z,52.91
2022-09-28T01:58:18.903Z,53.40
2022-09-28T02:00:48.276Z,53.29
2022-09-28T02:03:19.283Z,53.02
2022-09-28T02:05:48.667Z,52.98
2022-09-28T02:08:17.958Z,52.69
2022-09-28T02:10:48.758Z,52.84
2022-09-28T02:13:16.730Z,52.72
2022-09-28T02:15:46.041Z,52.76
2022-09-28T02:18:12.932Z,52.98
2022-09-28T02:20:42.425Z,52.76
2022-09-28T02:23:09.496Z,52.88
2022-09-28T02:25:39.562Z,52.97
2022-09-28T02:28:07.550Z,53.65
2022-09-28T02:30:35.890Z,53.16
2022-09-28T02:33:05.895Z,52.88
2022-09-28T02:35:32.233Z,52.85
2022-09-28T02:37:59.963Z,52.59
2022-09-28T02:40:31.056Z,52.63
2022-09-28T02:43:01.932Z,52.51
2022-09-28T02:45:36.280Z,52.90
2022-09-28T02:48:08.360Z,52.68
2022-09-28T02:50:39.061Z,53.03
2022-09-28T02:53:18.431Z,53.22
2022-09-28T02:55:55.419Z,53.10
2022-09-28T02:58:30.463Z,53.07
2022-09-28T03:01:01.730Z,52.77
2022-09-28T03:03:31.269Z,52.49
2022-09-28T03:06:00.004Z,52.66
2022-09-28T03:08:29.962Z,52.78
2022-09-28T03:10:59.073Z,52.53
2022-09-28T03:13:25.902Z,52.63
2022-09-28T03:15:52.216Z,52.74
2022-09-28T03:18:18.667Z,52.81
2022-09-28T03:20:45.007Z,53.15
2022-09-28T03:23:26.917Z,53.37
2022-09-28T03:25:54.655Z,52.86
2022-09-28T03:28:21.098Z,52.68
2022-09-28T03:30:47.676Z,52.76
2022-09-28T03:33:14.154Z,52.78
2022-09-28T03:35:40.615Z,52.76
2022-09-28T03:38:06.978Z,52.70
2022-09-28T03:40:33.435Z,52.66
2022-09-28T03:43:01.218Z,52.65
2022-09-28T03:45:27.593Z,53.04
2022-09-28T03:47:54.094Z,53.01
2022-09-28T03:50:20.444Z,53.03
2022-09-28T03:52:46.803Z,52.81
2022-09-28T03:55:13.128Z,52.64
2022-09-28T03:57:39.467Z,52.66
2022-09-28T04:00:07.659Z,52.73
2022-09-28T04:02:34.187Z,52.54
2022-09-28T04:05:00.582Z,52.66
2022-09-28T04:07:30.793Z,52.87
2022-09-28T04:09:57.527Z,52.85
2022-09-28T04:12:23.919Z,53.35
2022-09-28T04:14:50.259Z,53.29
2022-09-28T04:17:17.948Z,52.72
2022-09-28T04:19:44.262Z,52.55
2022-09-28T04:22:10.595Z,52.51
2022-09-28T04:24:36.933Z,52.55
2022-09-28T04:27:03.422Z,52.60
2022-09-28T04:29:29.785Z,52.59
2022-09-28T04:31:56.250Z,52.73
2022-09-28T04:34:24.042Z,52.71
2022-09-28T04:36:50.391Z,52.70
2022-09-28T04:39:17.512Z,52.71
2022-09-28T04:41:44.075Z,53.13
2022-09-28T04:44:10.488Z,53.16
2022-09-28T04:46:36.865Z,52.86
2022-09-28T04:49:03.356Z,52.57
2022-09-28T04:51:31.755Z,52.54
2022-09-28T04:53:58.081Z,52.57
2022-09-28T04:56:24.443Z,52.54
2022-09-28T04:58:52.855Z,52.40
2022-09-28T05:01:19.821Z,52.62
2022-09-28T05:03:46.440Z,52.67
2022-09-28T05:06:13.658Z,52.73
2022-09-28T05:08:41.518Z,53.00
2022-09-28T05:11:10.055Z,53.10
2022-09-28T05:13:39.780Z,52.88
2022-09-28T05:16:06.490Z,52.77
2022-09-28T05:18:32.843Z,52.75
2022-09-28T05:20:59.174Z,52.72
2022-09-28T05:23:25.510Z,52.61
2022-09-28T05:25:53.155Z,54.33
2022-09-28T05:28:22.532Z,56.21
2022-09-28T05:30:48.934Z,56.87
2022-09-28T05:33:15.262Z,56.15
2022-09-28T05:35:41.563Z,55.95
2022-09-28T05:38:08.034Z,55.62
2022-09-28T05:40:34.451Z,54.62
2022-09-28T05:43:02.223Z,54.11
2022-09-28T05:45:28.869Z,53.84
2022-09-28T05:47:55.360Z,53.71
2022-09-28T05:50:21.794Z,53.42
2022-09-28T05:52:56.676Z,53.52
2022-09-28T05:55:23.019Z,53.65
2022-09-28T05:57:49.357Z,53.70
2022-09-28T06:00:17.046Z,54.09
2022-09-28T06:02:43.477Z,53.80
2022-09-28T06:05:09.970Z,53.32
2022-09-28T06:07:36.284Z,53.14
2022-09-28T06:10:02.814Z,53.19
2022-09-28T06:12:29.124Z,53.37
2022-09-28T06:14:55.448Z,53.24
2022-09-28T06:17:23.108Z,53.07
2022-09-28T06:19:49.538Z,53.72
2022-09-28T06:22:15.889Z,53.42
2022-09-28T06:24:42.202Z,53.18
2022-09-28T06:27:08.532Z,53.01
2022-09-28T06:29:34.908Z,52.90
2022-09-28T06:32:01.395Z,52.62
2022-09-28T06:34:29.080Z,52.57
2022-09-28T06:36:55.482Z,52.64
2022-09-28T06:39:21.814Z,52.76
2022-09-28T06:41:48.265Z,52.97
2022-09-28T06:44:14.776Z,53.23
2022-09-28T06:46:41.323Z,52.92
2022-09-28T06:49:07.768Z,52.68
2022-09-28T06:51:35.451Z,52.70
2022-09-28T06:54:01.909Z,52.78
2022-09-28T06:56:32.565Z,52.86
2022-09-28T06:58:59.312Z,52.71
2022-09-28T07:01:25.785Z,52.85
2022-09-28T07:03:55.498Z,52.99
2022-09-28T07:06:22.298Z,52.83
2022-09-28T07:09:01.343Z,52.89
2022-09-28T07:11:38.002Z,52.96
2022-09-28T07:14:04.488Z,53.12
2022-09-28T07:16:49.615Z,53.04
2022-09-28T07:19:17.203Z,53.27
2022-09-28T07:21:44.274Z,52.87
2022-09-28T07:24:12.636Z,52.77
2022-09-28T07:26:38.981Z,52.84
2022-09-28T07:29:05.329Z,54.26
2022-09-28T07:31:31.641Z,53.55
2022-09-28T07:33:57.950Z,53.37
2022-09-28T07:36:24.343Z,53.38
2022-09-28T07:38:50.676Z,53.52
2022-09-28T07:41:18.496Z,53.87
2022-09-28T07:43:44.837Z,54.95
2022-09-28T07:46:11.334Z,55.57
2022-09-28T07:48:38.983Z,56.36
2022-09-28T07:51:05.390Z,56.12
2022-09-28T07:53:32.086Z,56.30
2022-09-28T07:55:59.342Z,56.64
2022-09-28T07:58:26.943Z,56.66
2022-09-28T08:00:53.355Z,55.92
2022-09-28T08:03:20.506Z,55.50
2022-09-28T08:05:46.905Z,56.28
2022-09-28T08:08:13.651Z,56.37
2022-09-28T08:10:45.801Z,55.74
2022-09-28T08:13:13.374Z,55.80
2022-09-28T08:15:41.035Z,56.04
2022-09-28T08:18:07.536Z,56.38
2022-09-28T08:20:34.277Z,57.10
2022-09-28T08:23:02.747Z,57.10
2022-09-28T08:25:29.202Z,57.13
2022-09-28T08:27:55.524Z,56.65
2022-09-28T08:30:21.956Z,55.85
2022-09-28T08:32:49.657Z,54.35
2022-09-28T08:35:16.046Z,54.66
2022-09-28T08:37:45.875Z,56.29
2022-09-28T08:40:18.608Z,56.62
2022-09-28T08:42:45.008Z,56.70
2022-09-28T08:45:12.908Z,57.00
2022-09-28T08:47:44.005Z,57.13
2022-09-28T08:50:16.983Z,57.06
2022-09-28T08:52:44.253Z,57.10
2022-09-28T08:55:13.610Z,57.10
2022-09-28T08:57:43.207Z,57.39
2022-09-28T09:00:14.699Z,57.45
2022-09-28T09:02:41.291Z,57.30
2022-09-28T09:05:11.074Z,57.44
2022-09-28T09:07:48.445Z,57.20
2022-09-28T09:10:23.184Z,56.87
2022-09-28T09:12:56.943Z,57.07
2022-09-28T09:15:30.278Z,57.17
2022-09-28T09:18:06.183Z,57.08
2022-09-28T09:20:37.887Z,57.13
2022-09-28T09:23:10.462Z,56.93
2022-09-28T09:25:40.540Z,56.95
2022-09-28T09:28:19.457Z,56.66
2022-09-28T09:30:51.421Z,56.15
2022-09-28T09:33:33.091Z,56.05
2022-09-28T09:36:04.318Z,57.02
2022-09-28T09:38:40.100Z,57.08
2022-09-28T09:43:55.373Z,57.20
2022-09-28T09:46:26.642Z,57.06
2022-09-28T09:48:55.637Z,56.90
2022-09-28T09:51:25.679Z,57.09
2022-09-28T09:53:55.511Z,57.12
2022-09-28T09:56:26.309Z,57.01
2022-09-28T09:58:56.014Z,56.42
2022-09-28T10:01:26.833Z,56.49
2022-09-28T10:03:54.530Z,56.35
2022-09-28T10:06:25.077Z,55.82
2022-09-28T10:08:56.471Z,54.14
2022-09-28T10:11:27.468Z,54.21
2022-09-28T10:13:54.058Z,54.08
2022-09-28T10:16:20.415Z,53.17
2022-09-28T10:18:47.211Z,52.96
2022-09-28T10:21:13.839Z,52.55
2022-09-28T10:23:40.977Z,52.84
2022-09-28T10:26:09.978Z,52.72
2022-09-28T10:28:40.648Z,52.79
2022-09-28T10:31:21.930Z,52.58
2022-09-28T10:33:48.280Z,52.75
2022-09-28T10:36:14.631Z,53.64
2022-09-28T10:38:47.415Z,53.53
2022-09-28T10:41:13.740Z,53.01
2022-09-28T10:43:50.711Z,52.78
2022-09-28T10:46:21.310Z,52.58
2022-09-28T10:48:49.860Z,52.48
2022-09-28T10:51:16.900Z,52.48
2022-09-28T10:53:57.070Z,52.74
2022-09-28T10:56:26.716Z,52.36
2022-09-28T10:58:54.376Z,52.66
2022-09-28T11:01:21.553Z,53.05
2022-09-28T11:03:49.783Z,53.09
2022-09-28T11:06:22.630Z,53.01
2022-09-28T11:08:49.363Z,52.52
2022-09-28T11:11:16.812Z,52.41
2022-09-28T11:13:44.674Z,52.18
2022-09-28T11:16:21.538Z,52.24
2022-09-28T11:18:48.310Z,51.93
2022-09-28T11:21:15.975Z,52.29
2022-09-28T11:23:54.700Z,51.55
2022-09-28T11:26:21.662Z,51.25
2022-09-28T11:28:50.691Z,51.88
2022-09-28T11:31:23.744Z,51.45
2022-09-28T11:33:51.733Z,51.72
2022-09-28T11:36:28.326Z,51.19
2022-09-28T11:39:00.130Z,50.73
2022-09-28T11:41:38.636Z,50.88
2022-09-28T11:44:13.111Z,50.72
2022-09-28T11:46:44.203Z,49.60
2022-09-28T11:49:19.523Z,49.64
2022-09-28T11:51:47.358Z,49.95
2022-09-28T11:54:19.330Z,50.18
2022-09-28T11:56:47.727Z,50.59
2022-09-28T11:59:15.759Z,50.60
2022-09-28T12:01:43.851Z,50.77
2022-09-28T12:04:14.173Z,51.00
2022-09-28T12:06:45.758Z,51.17
2022-09-28T12:09:16.986Z,51.21
2022-09-28T12:11:45.338Z,51.33
2022-09-28T12:14:16.063Z,51.86
2022-09-28T12:17:04.945Z,52.39
2022-09-28T12:19:34.758Z,51.96
2022-09-28T12:22:04.103Z,52.47
2022-09-28T12:24:32.107Z,52.43
2022-09-28T12:27:02.987Z,52.32
2022-09-28T12:29:32.085Z,52.52
2022-09-28T12:32:02.498Z,52.75
2022-09-28T12:34:28.970Z,52.76
2022-09-28T12:37:02.249Z,52.77
2022-09-28T12:39:56.327Z,53.01
2022-09-28T12:42:28.969Z,52.83
2022-09-28T12:45:03.089Z,53.03
2022-09-28T12:47:38.941Z,52.85
2022-09-28T12:50:38.134Z,52.50
2022-09-28T12:53:07.476Z,51.84
2022-09-28T12:55:41.383Z,52.07
2022-09-28T12:58:17.493Z,51.81
2022-09-28T13:00:51.133Z,52.04
2022-09-28T13:03:27.980Z,51.84
2022-09-28T13:06:05.112Z,52.01
2022-09-28T13:08:34.037Z,51.75
2022-09-28T13:11:08.102Z,51.05
2022-09-28T13:13:41.070Z,50.83
2022-09-28T13:16:12.079Z,50.83
2022-09-28T13:18:41.353Z,50.46
2022-09-28T13:21:13.316Z,50.88
2022-09-28T13:23:41.880Z,50.66
2022-09-28T13:26:13.801Z,50.87
2022-09-28T13:28:40.999Z,50.73
2022-09-28T13:31:07.909Z,51.58
2022-09-28T13:33:35.654Z,52.01
2022-09-28T13:36:02.611Z,51.19
2022-09-28T13:38:30.078Z,50.83
2022-09-28T13:41:11.227Z,50.61
2022-09-28T13:43:48.592Z,50.74
2022-09-28T13:46:20.700Z,50.78
2022-09-28T13:48:53.738Z,50.90
2022-09-28T13:51:30.974Z,50.85
2022-09-28T13:54:03.327Z,51.22
2022-09-28T13:56:34.069Z,53.28
2022-09-28T13:59:08.215Z,54.52
2022-09-28T14:01:37.458Z,55.05
2022-09-28T14:04:12.869Z,55.51
2022-09-28T14:06:47.477Z,55.26
2022-09-28T14:09:24.281Z,55.15
2022-09-28T14:11:54.713Z,55.32
2022-09-28T14:14:27.737Z,55.55
2022-09-28T14:17:00.158Z,55.54
2022-09-28T14:19:29.047Z,56.06
2022-09-28T14:22:01.232Z,56.23
2022-09-28T14:24:31.711Z,56.41
2022-09-28T14:27:11.217Z,56.21
2022-09-28T14:29:39.446Z,56.43
2022-09-28T14:32:21.376Z,56.00
2022-09-28T14:34:54.487Z,54.05
2022-09-28T14:37:24.968Z,53.38
2022-09-28T14:39:51.509Z,53.91
2022-09-28T14:42:19.547Z,53.50
2022-09-28T14:45:05.228Z,52.97
2022-09-28T14:47:36.747Z,52.71
2022-09-28T14:50:17.577Z,52.61
2022-09-28T14:52:46.409Z,52.77
2022-09-28T14:55:14.401Z,52.61
2022-09-28T14:57:41.289Z,52.51
2022-09-28T15:00:14.742Z,52.65
2022-09-28T15:02:47.213Z,53.28
2022-09-28T15:05:15.821Z,53.25
2022-09-28T15:07:44.054Z,52.83
2022-09-28T15:10:15.210Z,52.27
2022-09-28T15:12:43.446Z,52.25
2022-09-28T15:15:23.148Z,52.36
2022-09-28T15:17:57.744Z,52.30
2022-09-28T15:20:26.111Z,52.27
2022-09-28T15:22:55.437Z,52.18
2022-09-28T15:25:22.646Z,52.22
2022-09-28T15:27:51.405Z,53.04
2022-09-28T15:30:22.138Z,52.56
2022-09-28T15:32:48.591Z,52.33
2022-09-28T15:35:19.824Z,52.28
2022-09-28T15:37:46.810Z,52.26
2022-09-28T15:40:15.304Z,52.13
2022-09-28T15:42:42.207Z,52.24
2022-09-28T15:45:23.378Z,52.00
2022-09-28T15:47:49.769Z,51.97
2022-09-28T15:50:22.668Z,52.24
2022-09-28T15:52:53.799Z,52.23
2022-09-28T15:55:24.102Z,52.64
2022-09-28T15:57:50.889Z,53.14
2022-09-28T16:00:26.951Z,52.75
2022-09-28T16:02:57.714Z,52.24
2022-09-28T16:05:34.877Z,52.18
2022-09-28T16:08:02.164Z,52.04
2022-09-28T16:10:30.440Z,52.04
2022-09-28T16:12:59.494Z,51.93
2022-09-28T16:15:27.940Z,51.87
2022-09-28T16:17:55.806Z,51.88
2022-09-28T16:20:24.886Z,51.67
2022-09-28T16:22:52.565Z,52.01
2022-09-28T16:25:20.465Z,52.75
2022-09-28T16:27:46.813Z,52.98
2022-09-28T16:30:15.782Z,52.01
2022-09-28T16:32:49.134Z,51.80
2022-09-28T16:35:17.197Z,51.49
2022-09-28T16:37:43.589Z,51.56
2022-09-28T16:40:11.706Z,51.50
2022-09-28T16:42:38.457Z,51.61
2022-09-28T16:45:05.454Z,51.54
2022-09-28T16:47:32.202Z,51.67
2022-09-28T16:49:58.566Z,51.43
2022-09-28T16:52:24.885Z,51.89
2022-09-28T16:54:52.126Z,52.57
2022-09-28T16:57:19.846Z,52.26
2022-09-28T16:59:46.158Z,51.74
2022-09-28T17:02:35.434Z,51.48
2022-09-28T17:05:01.186Z,51.46
2022-09-28T17:07:27.685Z,51.37
2022-09-28T17:09:54.002Z,51.15
2022-09-28T17:12:22.857Z,51.59
2022-09-28T17:14:49.208Z,51.45
2022-09-28T17:17:17.211Z,51.46
2022-09-28T17:19:43.737Z,51.57
2022-09-28T17:22:10.080Z,51.95
2022-09-28T17:24:36.403Z,51.89
2022-09-28T17:27:03.136Z,51.63
2022-09-28T17:29:30.840Z,51.31
2022-09-28T17:31:57.327Z,51.50
2022-09-28T17:34:23.668Z,51.66
2022-09-28T17:36:50.083Z,51.37
2022-09-28T17:39:17.467Z,51.46
2022-09-28T17:41:44.103Z,51.38
2022-09-28T17:44:10.708Z,51.26
2022-09-28T17:46:39.917Z,52.03
2022-09-28T17:49:07.792Z,52.04
2022-09-28T17:51:35.548Z,51.66
2022-09-28T17:54:01.979Z,51.24
2022-09-28T17:56:31.876Z,51.15
2022-09-28T17:58:59.775Z,51.30
2022-09-28T18:01:26.157Z,51.14
2022-09-28T18:03:53.835Z,51.24
2022-09-28T18:06:20.170Z,51.06
2022-09-28T18:08:46.549Z,51.15
2022-09-28T18:11:12.881Z,51.15
2022-09-28T18:13:39.420Z,51.23
2022-09-28T18:16:06.262Z,51.66
2022-09-28T18:18:32.975Z,51.70
2022-09-28T18:21:01.223Z,51.51
2022-09-28T18:23:27.587Z,51.26
2022-09-28T18:25:53.879Z,50.96
2022-09-28T18:28:20.261Z,51.01
2022-09-28T18:30:46.731Z,50.92
2022-09-28T18:33:13.970Z,51.02
2022-09-28T18:35:40.841Z,50.86
2022-09-28T18:38:08.468Z,50.92
2022-09-28T18:40:34.943Z,50.98
2022-09-28T18:43:01.347Z,51.07
2022-09-28T18:45:27.706Z,51.21
2022-09-28T18:47:54.078Z,51.95
2022-09-28T18:50:20.421Z,51.63
2022-09-28T18:52:46.821Z,51.35
2022-09-28T18:55:14.512Z,51.03
2022-09-28T18:57:40.836Z,51.02
2022-09-28T19:00:09.225Z,50.89
2022-09-28T19:02:36.358Z,50.87
2022-09-28T19:05:03.389Z,50.92
2022-09-28T19:07:29.709Z,50.92
2022-09-28T19:09:56.040Z,51.04
2022-09-28T19:12:23.683Z,51.15
2022-09-28T19:14:49.997Z,51.29
2022-09-28T19:17:16.388Z,51.48
2022-09-28T19:19:42.776Z,51.62
2022-09-28T19:22:09.240Z,51.25
2022-09-28T19:24:35.649Z,51.10
2022-09-28T19:27:01.993Z,50.74
2022-09-28T19:29:29.632Z,50.92
2022-09-28T19:31:55.975Z,50.67
2022-09-28T19:34:22.416Z,50.83
2022-09-28T19:36:48.767Z,51.04
2022-09-28T19:39:15.192Z,50.84
2022-09-28T19:41:44.347Z,50.89
2022-09-28T19:44:12.251Z,51.03
2022-09-28T19:46:40.358Z,51.46
2022-09-28T19:49:07.774Z,51.76
2022-09-28T19:51:34.197Z,51.28
2022-09-28T19:54:01.073Z,50.95
2022-09-28T19:56:27.928Z,50.71
2022-09-28T19:58:54.240Z,50.76
2022-09-28T20:01:20.642Z,50.60
2022-09-28T20:03:48.304Z,50.59
2022-09-28T20:06:17.306Z,50.67
2022-09-28T20:08:44.792Z,50.85
2022-09-28T20:11:11.286Z,50.82
2022-09-28T20:13:37.704Z,51.25
2022-09-28T20:16:04.728Z,51.53
2022-09-28T20:18:32.213Z,51.57
2022-09-28T20:21:02.094Z,51.15
2022-09-28T20:23:28.456Z,50.76
2022-09-28T20:25:54.809Z,50.67
2022-09-28T20:28:21.247Z,50.42
2022-09-28T20:30:47.629Z,50.43
2022-09-28T20:33:19.118Z,50.49
2022-09-28T20:35:53.879Z,50.37
2022-09-28T20:38:21.612Z,50.49
2022-09-28T20:40:48.046Z,50.58
2022-09-28T20:43:14.465Z,50.77
2022-09-28T20:45:40.796Z,50.53
2022-09-28T20:48:07.224Z,51.04
2022-09-28T20:50:33.708Z,51.61
2022-09-28T20:53:00.032Z,51.54
2022-09-28T20:55:27.847Z,50.95
2022-09-28T20:57:54.222Z,50.68
2022-09-28T21:00:20.904Z,50.57
2022-09-28T21:02:50.992Z,50.48
2022-09-28T21:05:17.406Z,50.39
2022-09-28T21:07:43.722Z,50.55
2022-09-28T21:10:10.280Z,50.51
2022-09-28T21:12:37.931Z,50.60
2022-09-28T21:15:06.102Z,50.54
2022-09-28T21:17:32.613Z,50.65
2022-09-28T21:19:58.965Z,51.33
2022-09-28T21:22:25.286Z,51.42
2022-09-28T21:24:51.602Z,50.85
2022-09-28T21:27:17.936Z,50.77
2022-09-28T21:29:45.540Z,50.38
2022-09-28T21:32:11.943Z,50.14
2022-09-28T21:34:38.262Z,50.47
2022-09-28T21:37:05.384Z,50.24
2022-09-28T21:39:31.745Z,50.30
2022-09-28T21:41:58.166Z,50.49
2022-09-28T21:44:24.508Z,50.36
2022-09-28T21:46:52.080Z,50.59
2022-09-28T21:49:18.470Z,51.21
2022-09-28T21:51:44.814Z,50.88
2022-09-28T21:54:11.250Z,50.50
2022-09-28T21:56:37.617Z,50.43
2022-09-28T21:59:03.968Z,50.14
2022-09-28T22:01:30.339Z,50.11
2022-09-28T22:03:58.081Z,50.26
2022-09-28T22:06:25.523Z,50.14
2022-09-28T22:08:51.853Z,50.16
2022-09-28T22:11:19.727Z,50.33
2022-09-28T22:13:46.947Z,50.75
2022-09-28T22:16:14.085Z,50.89
2022-09-28T22:18:40.819Z,50.51
2022-09-28T22:21:10.012Z,50.09
2022-09-28T22:23:37.403Z,50.04
2022-09-28T22:26:05.014Z,50.02
2022-09-28T22:28:31.362Z,49.82
2022-09-28T22:30:57.829Z,50.05
2022-09-28T22:33:24.577Z,50.15
2022-09-28T22:35:51.122Z,50.04
2022-09-28T22:38:18.829Z,49.83
2022-09-28T22:40:48.248Z,50.73
2022-09-28T22:43:14.683Z,50.68
2022-09-28T22:45:41.113Z,50.42
2022-09-28T22:48:07.515Z,50.04
2022-09-28T22:50:33.888Z,50.13
2022-09-28T22:53:00.500Z,49.78
2022-09-28T22:55:28.188Z,49.80
2022-09-28T22:57:54.533Z,49.96
2022-09-28T23:00:20.855Z,49.85
2022-09-28T23:02:47.384Z,49.92
2022-09-28T23:05:13.816Z,49.92
2022-09-28T23:07:40.218Z,49.84
2022-09-28T23:10:06.819Z,49.79
2022-09-28T23:12:34.511Z,50.64
2022-09-28T23:15:00.819Z,50.73
2022-09-28T23:17:27.272Z,50.50
2022-09-28T23:19:53.772Z,50.07
2022-09-28T23:22:20.101Z,49.98
2022-09-28T23:24:46.426Z,49.81
2022-09-28T23:27:12.858Z,49.80
2022-09-28T23:29:40.599Z,49.85
2022-09-28T23:32:06.928Z,49.89
2022-09-28T23:34:33.249Z,49.92
2022-09-28T23:36:59.650Z,49.79
2022-09-28T23:39:26.107Z,49.89
2022-09-28T23:41:52.574Z,50.58
2022-09-28T23:44:19.027Z,50.58
2022-09-28T23:46:46.826Z,50.05
2022-09-28T23:49:13.449Z,49.78
2022-09-28T23:51:39.902Z,49.83
2022-09-28T23:54:06.444Z,49.78
2022-09-28T23:56:32.803Z,49.64
2022-09-28T23:58:59.213Z,49.53
